Algodones, New Mexico
Current Conditions -  °F | °C
As of 3:52 PM on Saturday 20 Dec 2014 (Local Time) from KABQ Reporting Station
Few Clouds Few Clouds  
Wind Chill: 44°   Ceiling: Unl
Heat Index: 44°   Visibility: 10mi
Dew Point: 25°   Wind: 0mph
Humidity: 47%   Direction: NA
Pressure: 30.09"   Gusts: NA
Location:  35.38°N, 106.48°W
Report Text: KABQ 202252Z 00000KT 10SM FEW250 07/M04 A3009 RMK AO2 SLP186 T00671039
Loading
Personal Weather Stations






























Interactive Weather Map New forecast layout! Learn more

10-Day Weather Forecast

Advertisements
Track Severe Weather on mobile